Owyhee Corners, Oregon
Current Conditions -  °F | °C
As of 3:53 PM on Saturday 20 Dec 2014 (Local Time) from KONO Reporting Station
Light Rain Light Rain  
Wind Chill: 40°   Ceiling: 3500
Heat Index: 45°   Visibility: 8mi
Dew Point: 41°   Wind: 9mph
Humidity: 86%   Direction: 170°S
Pressure: 29.94"   Gusts: NA
Location:  43.754°N, 117.202°W
Report Text: KONO 202253Z AUTO 17008KT 8SM -RA OVC035 07/05 A2994 RMK AO2 SLP150 P0002 T00720050
Loading
Personal Weather Stations






























Interactive Weather Map New forecast layout! Learn more

10-Day Weather Forecast

Advertisements
Track Severe Weather on mobile